sensor_id;sensor_type;location;lat;lon;timestamp;temperature;humidity
9371;DHT22;4725;48.384;8.984;2023-10-08T00:04:10;11.00;99.90
9371;DHT22;4725;48.384;8.984;2023-10-08T00:06:37;10.80;99.90
9371;DHT22;4725;48.384;8.984;2023-10-08T00:09:04;10.80;99.90
9371;DHT22;4725;48.384;8.984;2023-10-08T00:11:36;10.80;99.90
9371;DHT22;4725;48.384;8.984;2023-10-08T00:14:03;10.90;99.90
9371;DHT22;4725;48.384;8.984;2023-10-08T00:16:34;11.10;99.90
9371;DHT22;4725;48.384;8.984;2023-10-08T00:19:04;11.30;99.90
9371;DHT22;4725;48.384;8.984;2023-10-08T00:21:35;11.30;99.90
9371;DHT22;4725;48.384;8.984;2023-10-08T00:24:04;11.10;99.90
9371;DHT22;4725;48.384;8.984;2023-10-08T00:26:33;11.00;99.90
9371;DHT22;4725;48.384;8.984;2023-10-08T00:29:08;11.00;99.90
9371;DHT22;4725;48.384;8.984;2023-10-08T00:31:42;11.00;99.90
9371;DHT22;4725;48.384;8.984;2023-10-08T00:34:11;11.00;99.90
9371;DHT22;4725;48.384;8.984;2023-10-08T00:36:40;11.10;99.90
9371;DHT22;4725;48.384;8.984;2023-10-08T00:39:08;11.10;99.90
9371;DHT22;4725;48.384;8.984;2023-10-08T00:41:40;11.00;99.90
9371;DHT22;4725;48.384;8.984;2023-10-08T00:44:10;11.00;99.90
9371;DHT22;4725;48.384;8.984;2023-10-08T00:46:39;10.80;99.90
9371;DHT22;4725;48.384;8.984;2023-10-08T00:49:13;10.80;99.90
9371;DHT22;4725;48.384;8.984;2023-10-08T00:51:51;10.80;99.90
9371;DHT22;4725;48.384;8.984;2023-10-08T00:54:29;10.60;99.90
9371;DHT22;4725;48.384;8.984;2023-10-08T00:56:59;10.80;99.90
9371;DHT22;4725;48.384;8.984;2023-10-08T00:59:32;10.80;99.90
9371;DHT22;4725;48.384;8.984;2023-10-08T01:02:07;11.00;99.90
9371;DHT22;4725;48.384;8.984;2023-10-08T01:04:40;11.00;99.90
9371;DHT22;4725;48.384;8.984;2023-10-08T01:07:10;11.10;99.90
9371;DHT22;4725;48.384;8.984;2023-10-08T01:09:39;11.10;99.90
9371;DHT22;4725;48.384;8.984;2023-10-08T01:12:09;10.90;99.90
9371;DHT22;4725;48.384;8.984;2023-10-08T01:14:40;10.80;99.90
9371;DHT22;4725;48.384;8.984;2023-10-08T01:17:09;10.80;99.90
9371;DHT22;4725;48.384;8.984;2023-10-08T01:19:38;10.70;99.90
9371;DHT22;4725;48.384;8.984;2023-10-08T01:22:09;10.60;99.90
9371;DHT22;4725;48.384;8.984;2023-10-08T01:24:42;10.60;99.90
9371;DHT22;4725;48.384;8.984;2023-10-08T01:29:38;10.70;99.90
9371;DHT22;4725;48.384;8.984;2023-10-08T01:32:05;10.80;99.90
9371;DHT22;4725;48.384;8.984;2023-10-08T01:37:04;11.30;99.90
9371;DHT22;4725;48.384;8.984;2023-10-08T01:39:36;11.30;99.90
9371;DHT22;4725;48.384;8.984;2023-10-08T01:42:05;11.40;99.90
9371;DHT22;4725;48.384;8.984;2023-10-08T01:44:33;11.40;99.90
9371;DHT22;4725;48.384;8.984;2023-10-08T01:47:00;11.30;99.90
9371;DHT22;4725;48.384;8.984;2023-10-08T01:49:29;11.20;99.90
9371;DHT22;4725;48.384;8.984;2023-10-08T01:51:58;11.00;99.90
9371;DHT22;4725;48.384;8.984;2023-10-08T01:57:02;11.00;99.90
9371;DHT22;4725;48.384;8.984;2023-10-08T01:59:31;11.20;99.90
9371;DHT22;4725;48.384;8.984;2023-10-08T02:01:59;11.60;99.90
9371;DHT22;4725;48.384;8.984;2023-10-08T02:06:53;12.40;99.90
9371;DHT22;4725;48.384;8.984;2023-10-08T02:09:20;12.60;99.90
9371;DHT22;4725;48.384;8.984;2023-10-08T02:11:52;13.00;99.90
9371;DHT22;4725;48.384;8.984;2023-10-08T02:14:21;13.20;99.90
9371;DHT22;4725;48.384;8.984;2023-10-08T02:16:48;13.30;99.90
9371;DHT22;4725;48.384;8.984;2023-10-08T02:19:17;13.30;99.90
9371;DHT22;4725;48.384;8.984;2023-10-08T02:21:52;13.40;99.90
9371;DHT22;4725;48.384;8.984;2023-10-08T02:24:20;13.50;99.90
9371;DHT22;4725;48.384;8.984;2023-10-08T02:26:50;13.50;99.90
9371;DHT22;4725;48.384;8.984;2023-10-08T02:29:17;13.50;99.90
9371;DHT22;4725;48.384;8.984;2023-10-08T02:31:45;13.50;99.90
9371;DHT22;4725;48.384;8.984;2023-10-08T02:34:13;13.30;99.90
9371;DHT22;4725;48.384;8.984;2023-10-08T02:36:41;13.20;99.90
9371;DHT22;4725;48.384;8.984;2023-10-08T02:39:08;13.20;99.90
9371;DHT22;4725;48.384;8.984;2023-10-08T02:41:42;13.10;99.90
9371;DHT22;4725;48.384;8.984;2023-10-08T02:44:12;13.40;99.90
9371;DHT22;4725;48.384;8.984;2023-10-08T02:46:40;13.10;99.90
9371;DHT22;4725;48.384;8.984;2023-10-08T02:49:09;14.30;99.90
9371;DHT22;4725;48.384;8.984;2023-10-08T02:51:38;14.50;99.90
9371;DHT22;4725;48.384;8.984;2023-10-08T02:54:07;14.30;99.90
9371;DHT22;4725;48.384;8.984;2023-10-08T02:56:42;14.30;99.90
9371;DHT22;4725;48.384;8.984;2023-10-08T02:59:10;14.40;99.90
9371;DHT22;4725;48.384;8.984;2023-10-08T03:01:37;14.20;99.90
9371;DHT22;4725;48.384;8.984;2023-10-08T03:04:05;13.90;99.90
9371;DHT22;4725;48.384;8.984;2023-10-08T03:06:41;13.50;99.90
9371;DHT22;4725;48.384;8.984;2023-10-08T03:09:08;13.50;99.90
9371;DHT22;4725;48.384;8.984;2023-10-08T03:11:36;13.30;99.90
9371;DHT22;4725;48.384;8.984;2023-10-08T03:14:05;13.30;99.90
9371;DHT22;4725;48.384;8.984;2023-10-08T03:16:40;13.30;99.90
9371;DHT22;4725;48.384;8.984;2023-10-08T03:19:07;13.50;99.90
9371;DHT22;4725;48.384;8.984;2023-10-08T03:21:34;13.60;99.90
9371;DHT22;4725;48.384;8.984;2023-10-08T03:24:16;13.70;99.90
9371;DHT22;4725;48.384;8.984;2023-10-08T03:27:04;13.60;99.90
9371;DHT22;4725;48.384;8.984;2023-10-08T03:29:38;13.60;99.90
9371;DHT22;4725;48.384;8.984;2023-10-08T03:32:08;13.90;99.90
9371;DHT22;4725;48.384;8.984;2023-10-08T03:34:39;14.00;99.90
9371;DHT22;4725;48.384;8.984;2023-10-08T03:37:09;14.00;99.90
9371;DHT22;4725;48.384;8.984;2023-10-08T03:39:42;13.80;99.90
9371;DHT22;4725;48.384;8.984;2023-10-08T03:42:20;13.70;99.90
9371;DHT22;4725;48.384;8.984;2023-10-08T03:44:48;13.60;99.90
9371;DHT22;4725;48.384;8.984;2023-10-08T03:47:17;13.70;99.90
9371;DHT22;4725;48.384;8.984;2023-10-08T03:49:48;13.70;99.90
9371;DHT22;4725;48.384;8.984;2023-10-08T03:52:16;13.80;99.90
9371;DHT22;4725;48.384;8.984;2023-10-08T03:54:46;14.00;99.90
9371;DHT22;4725;48.384;8.984;2023-10-08T03:57:17;14.00;99.90
9371;DHT22;4725;48.384;8.984;2023-10-08T03:59:51;13.90;99.90
9371;DHT22;4725;48.384;8.984;2023-10-08T04:02:24;13.70;99.90
9371;DHT22;4725;48.384;8.984;2023-10-08T04:05:05;13.50;99.90
9371;DHT22;4725;48.384;8.984;2023-10-08T04:07:45;13.30;99.90
9371;DHT22;4725;48.384;8.984;2023-10-08T04:10:29;13.00;99.90
9371;DHT22;4725;48.384;8.984;2023-10-08T04:13:25;13.00;99.90
9371;DHT22;4725;48.384;8.984;2023-10-08T04:15:53;13.20;99.90
9371;DHT22;4725;48.384;8.984;2023-10-08T04:18:20;13.20;99.90
9371;DHT22;4725;48.384;8.984;2023-10-08T04:20:47;13.40;99.90
9371;DHT22;4725;48.384;8.984;2023-10-08T04:23:26;13.30;99.90
9371;DHT22;4725;48.384;8.984;2023-10-08T04:25:55;13.40;99.90
9371;DHT22;4725;48.384;8.984;2023-10-08T04:28:23;13.40;99.90
9371;DHT22;4725;48.384;8.984;2023-10-08T04:33:27;13.30;99.90
9371;DHT22;4725;48.384;8.984;2023-10-08T04:35:57;13.20;99.90
9371;DHT22;4725;48.384;8.984;2023-10-08T04:38:28;13.30;99.90
9371;DHT22;4725;48.384;8.984;2023-10-08T04:40:57;13.20;99.90
9371;DHT22;4725;48.384;8.984;2023-10-08T04:43:27;13.10;99.90
9371;DHT22;4725;48.384;8.984;2023-10-08T04:45:56;13.00;99.90
9371;DHT22;4725;48.384;8.984;2023-10-08T04:48:23;12.90;99.90
9371;DHT22;4725;48.384;8.984;2023-10-08T04:53:25;12.80;99.90
9371;DHT22;4725;48.384;8.984;2023-10-08T04:55:59;12.50;99.90
9371;DHT22;4725;48.384;8.984;2023-10-08T04:58:31;12.50;99.90
9371;DHT22;4725;48.384;8.984;2023-10-08T05:01:02;12.40;99.90
9371;DHT22;4725;48.384;8.984;2023-10-08T05:03:56;12.20;99.90
9371;DHT22;4725;48.384;8.984;2023-10-08T05:07:02;12.00;99.90
9371;DHT22;4725;48.384;8.984;2023-10-08T05:09:56;11.80;99.90
9371;DHT22;4725;48.384;8.984;2023-10-08T05:12:38;11.70;99.90
9371;DHT22;4725;48.384;8.984;2023-10-08T05:15:11;11.80;99.90
9371;DHT22;4725;48.384;8.984;2023-10-08T05:17:52;11.80;99.90
9371;DHT22;4725;48.384;8.984;2023-10-08T05:20:38;11.90;99.90
9371;DHT22;4725;48.384;8.984;2023-10-08T05:23:25;12.00;99.90
9371;DHT22;4725;48.384;8.984;2023-10-08T05:26:38;11.90;99.90
9371;DHT22;4725;48.384;8.984;2023-10-08T05:29:10;11.90;99.90
9371;DHT22;4725;48.384;8.984;2023-10-08T05:31:54;11.80;99.90
9371;DHT22;4725;48.384;8.984;2023-10-08T05:34:46;11.90;99.90
9371;DHT22;4725;48.384;8.984;2023-10-08T05:37:36;12.00;99.90
9371;DHT22;4725;48.384;8.984;2023-10-08T05:40:08;12.20;99.90
9371;DHT22;4725;48.384;8.984;2023-10-08T05:42:48;12.30;99.90
9371;DHT22;4725;48.384;8.984;2023-10-08T05:45:26;12.50;99.90
9371;DHT22;4725;48.384;8.984;2023-10-08T05:47:55;12.40;99.90
9371;DHT22;4725;48.384;8.984;2023-10-08T05:53:07;12.50;99.90
9371;DHT22;4725;48.384;8.984;2023-10-08T05:55:55;12.60;99.90
9371;DHT22;4725;48.384;8.984;2023-10-08T05:58:43;12.60;99.90
9371;DHT22;4725;48.384;8.984;2023-10-08T06:01:26;12.70;99.90
9371;DHT22;4725;48.384;8.984;2023-10-08T06:04:05;12.70;99.90
9371;DHT22;4725;48.384;8.984;2023-10-08T06:06:46;9.50;99.90
9371;DHT22;4725;48.384;8.984;2023-10-08T06:09:23;12.60;99.90
9371;DHT22;4725;48.384;8.984;2023-10-08T06:12:01;12.60;99.90
9371;DHT22;4725;48.384;8.984;2023-10-08T06:14:39;12.60;99.90
9371;DHT22;4725;48.384;8.984;2023-10-08T06:17:33;12.60;99.90
9371;DHT22;4725;48.384;8.984;2023-10-08T06:20:22;12.70;99.90
9371;DHT22;4725;48.384;8.984;2023-10-08T06:22:52;12.80;99.90
9371;DHT22;4725;48.384;8.984;2023-10-08T06:25:26;13.00;99.90
9371;DHT22;4725;48.384;8.984;2023-10-08T06:27:53;13.10;99.90
9371;DHT22;4725;48.384;8.984;2023-10-08T06:30:23;13.10;99.90
9371;DHT22;4725;48.384;8.984;2023-10-08T06:32:55;13.10;99.90
9371;DHT22;4725;48.384;8.984;2023-10-08T06:35:21;12.90;99.90
9371;DHT22;4725;48.384;8.984;2023-10-08T06:37:54;12.90;99.90
9371;DHT22;4725;48.384;8.984;2023-10-08T06:40:24;12.90;99.90
9371;DHT22;4725;48.384;8.984;2023-10-08T06:43:07;13.00;99.90
9371;DHT22;4725;48.384;8.984;2023-10-08T06:48:24;12.00;99.90
9371;DHT22;4725;48.384;8.984;2023-10-08T06:50:55;13.20;99.90
9371;DHT22;4725;48.384;8.984;2023-10-08T06:53:23;13.40;99.90
9371;DHT22;4725;48.384;8.984;2023-10-08T06:58:22;13.70;99.90
9371;DHT22;4725;48.384;8.984;2023-10-08T07:00:51;13.80;99.90
9371;DHT22;4725;48.384;8.984;2023-10-08T07:03:20;14.10;99.90
9371;DHT22;4725;48.384;8.984;2023-10-08T07:05:49;14.50;99.90
9371;DHT22;4725;48.384;8.984;2023-10-08T07:08:26;14.50;99.90
9371;DHT22;4725;48.384;8.984;2023-10-08T07:10:55;14.90;99.90
9371;DHT22;4725;48.384;8.984;2023-10-08T07:13:22;15.10;99.90
9371;DHT22;4725;48.384;8.984;2023-10-08T07:15:52;15.40;99.90
9371;DHT22;4725;48.384;8.984;2023-10-08T07:20:51;15.50;99.90
9371;DHT22;4725;48.384;8.984;2023-10-08T07:23:20;15.60;99.90
9371;DHT22;4725;48.384;8.984;2023-10-08T07:25:54;15.80;99.90
9371;DHT22;4725;48.384;8.984;2023-10-08T07:28:25;15.70;99.90
9371;DHT22;4725;48.384;8.984;2023-10-08T07:30:53;15.80;99.90
9371;DHT22;4725;48.384;8.984;2023-10-08T07:35:51;15.90;99.90
9371;DHT22;4725;48.384;8.984;2023-10-08T07:38:25;16.00;99.90
9371;DHT22;4725;48.384;8.984;2023-10-08T07:40:52;16.10;99.90
9371;DHT22;4725;48.384;8.984;2023-10-08T07:43:20;16.20;99.90
9371;DHT22;4725;48.384;8.984;2023-10-08T07:45:48;16.30;99.90
9371;DHT22;4725;48.384;8.984;2023-10-08T07:48:16;16.30;99.90
9371;DHT22;4725;48.384;8.984;2023-10-08T07:50:44;16.60;99.90
9371;DHT22;4725;48.384;8.984;2023-10-08T07:53:12;16.90;99.90
9371;DHT22;4725;48.384;8.984;2023-10-08T07:55:45;17.20;99.90
9371;DHT22;4725;48.384;8.984;2023-10-08T07:58:14;17.20;99.90
9371;DHT22;4725;48.384;8.984;2023-10-08T08:00:42;17.50;99.90
9371;DHT22;4725;48.384;8.984;2023-10-08T08:03:19;17.70;99.90
9371;DHT22;4725;48.384;8.984;2023-10-08T08:05:46;18.20;99.90
9371;DHT22;4725;48.384;8.984;2023-10-08T08:08:14;18.30;99.90
9371;DHT22;4725;48.384;8.984;2023-10-08T08:10:44;18.50;99.90
9371;DHT22;4725;48.384;8.984;2023-10-08T08:13:11;18.80;99.90
9371;DHT22;4725;48.384;8.984;2023-10-08T08:15:39;19.20;99.90
9371;DHT22;4725;48.384;8.984;2023-10-08T08:18:18;19.20;99.90
9371;DHT22;4725;48.384;8.984;2023-10-08T08:23:16;19.60;99.90
9371;DHT22;4725;48.384;8.984;2023-10-08T08:25:43;20.20;99.90
9371;DHT22;4725;48.384;8.984;2023-10-08T08:28:31;20.20;99.90
9371;DHT22;4725;48.384;8.984;2023-10-08T08:31:02;20.40;99.90
9371;DHT22;4725;48.384;8.984;2023-10-08T08:33:31;20.50;99.90
9371;DHT22;4725;48.384;8.984;2023-10-08T08:36:18;20.80;99.10
9371;DHT22;4725;48.384;8.984;2023-10-08T08:38:45;20.80;99.10
9371;DHT22;4725;48.384;8.984;2023-10-08T08:41:13;20.80;98.70
9371;DHT22;4725;48.384;8.984;2023-10-08T08:43:44;20.90;98.60
9371;DHT22;4725;48.384;8.984;2023-10-08T08:46:11;21.00;97.70
9371;DHT22;4725;48.384;8.984;2023-10-08T08:48:41;21.00;97.70
9371;DHT22;4725;48.384;8.984;2023-10-08T08:51:10;21.00;98.00
9371;DHT22;4725;48.384;8.984;2023-10-08T08:53:37;20.90;98.40
9371;DHT22;4725;48.384;8.984;2023-10-08T08:56:06;20.80;98.60
9371;DHT22;4725;48.384;8.984;2023-10-08T08:58:35;20.80;98.90
9371;DHT22;4725;48.384;8.984;2023-10-08T09:01:05;21.00;98.60
9371;DHT22;4725;48.384;8.984;2023-10-08T09:03:33;21.00;98.20
9371;DHT22;4725;48.384;8.984;2023-10-08T09:06:04;21.10;97.50
9371;DHT22;4725;48.384;8.984;2023-10-08T09:08:35;21.20;97.80
9371;DHT22;4725;48.384;8.984;2023-10-08T09:11:03;21.40;97.50
9371;DHT22;4725;48.384;8.984;2023-10-08T09:13:31;21.70;97.50
9371;DHT22;4725;48.384;8.984;2023-10-08T09:16:07;21.90;97.00
9371;DHT22;4725;48.384;8.984;2023-10-08T09:18:34;21.90;96.80
9371;DHT22;4725;48.384;8.984;2023-10-08T09:21:10;22.00;96.50
9371;DHT22;4725;48.384;8.984;2023-10-08T09:23:41;22.10;96.90
9371;DHT22;4725;48.384;8.984;2023-10-08T09:26:13;22.40;94.90
9371;DHT22;4725;48.384;8.984;2023-10-08T09:28:44;22.40;95.10
9371;DHT22;4725;48.384;8.984;2023-10-08T09:31:12;22.60;95.00
9371;DHT22;4725;48.384;8.984;2023-10-08T09:33:40;22.60;95.10
9371;DHT22;4725;48.384;8.984;2023-10-08T09:36:09;22.80;94.60
9371;DHT22;4725;48.384;8.984;2023-10-08T09:38:44;22.90;95.60
9371;DHT22;4725;48.384;8.984;2023-10-08T09:41:13;22.80;94.40
9371;DHT22;4725;48.384;8.984;2023-10-08T09:43:41;22.80;93.80
9371;DHT22;4725;48.384;8.984;2023-10-08T09:46:15;23.00;93.60
9371;DHT22;4725;48.384;8.984;2023-10-08T09:48:47;23.10;93.00
9371;DHT22;4725;48.384;8.984;2023-10-08T09:51:18;23.40;93.10
9371;DHT22;4725;48.384;8.984;2023-10-08T09:53:52;22.70;93.60
9371;DHT22;4725;48.384;8.984;2023-10-08T09:56:20;23.70;93.30
9371;DHT22;4725;48.384;8.984;2023-10-08T09:58:47;23.80;93.30
9371;DHT22;4725;48.384;8.984;2023-10-08T10:01:17;23.80;92.00
9371;DHT22;4725;48.384;8.984;2023-10-08T10:03:45;23.90;91.90
9371;DHT22;4725;48.384;8.984;2023-10-08T10:06:13;24.00;91.90
9371;DHT22;4725;48.384;8.984;2023-10-08T10:08:44;24.10;92.40
9371;DHT22;4725;48.384;8.984;2023-10-08T10:11:11;24.30;91.80
9371;DHT22;4725;48.384;8.984;2023-10-08T10:13:40;24.50;90.00
9371;DHT22;4725;48.384;8.984;2023-10-08T10:16:08;24.80;90.10
9371;DHT22;4725;48.384;8.984;2023-10-08T10:18:35;24.80;89.90
9371;DHT22;4725;48.384;8.984;2023-10-08T10:21:24;25.20;90.70
9371;DHT22;4725;48.384;8.984;2023-10-08T10:23:54;26.00;88.20
9371;DHT22;4725;48.384;8.984;2023-10-08T10:26:24;26.00;87.20
9371;DHT22;4725;48.384;8.984;2023-10-08T10:31:58;26.20;86.10
9371;DHT22;4725;48.384;8.984;2023-10-08T10:34:27;26.00;88.20
9371;DHT22;4725;48.384;8.984;2023-10-08T10:36:56;25.90;85.90
9371;DHT22;4725;48.384;8.984;2023-10-08T10:39:26;25.90;85.20
9371;DHT22;4725;48.384;8.984;2023-10-08T10:41:55;26.10;84.60
9371;DHT22;4725;48.384;8.984;2023-10-08T10:44:23;26.20;85.00
9371;DHT22;4725;48.384;8.984;2023-10-08T10:46:50;25.90;84.40
9371;DHT22;4725;48.384;8.984;2023-10-08T10:51:46;25.80;84.60
9371;DHT22;4725;48.384;8.984;2023-10-08T10:54:15;27.20;85.20
9371;DHT22;4725;48.384;8.984;2023-10-08T10:56:47;26.50;84.50
9371;DHT22;4725;48.384;8.984;2023-10-08T10:59:29;26.60;84.80
9371;DHT22;4725;48.384;8.984;2023-10-08T11:02:01;27.10;85.70
9371;DHT22;4725;48.384;8.984;2023-10-08T11:04:34;27.30;82.90
9371;DHT22;4725;48.384;8.984;2023-10-08T11:07:13;27.50;80.60
9371;DHT22;4725;48.384;8.984;2023-10-08T11:09:42;27.30;83.70
9371;DHT22;4725;48.384;8.984;2023-10-08T11:12:13;27.40;83.60
9371;DHT22;4725;48.384;8.984;2023-10-08T11:14:48;27.80;82.50
9371;DHT22;4725;48.384;8.984;2023-10-08T11:17:22;28.00;79.10
9371;DHT22;4725;48.384;8.984;2023-10-08T11:22:17;28.40;79.80
9371;DHT22;4725;48.384;8.984;2023-10-08T11:24:48;28.60;81.20
9371;DHT22;4725;48.384;8.984;2023-10-08T11:27:21;28.40;78.00
9371;DHT22;4725;48.384;8.984;2023-10-08T11:29:56;28.40;77.10
9371;DHT22;4725;48.384;8.984;2023-10-08T11:32:24;27.70;81.00
9371;DHT22;4725;48.384;8.984;2023-10-08T11:34:55;27.70;80.90
9371;DHT22;4725;48.384;8.984;2023-10-08T11:37:28;27.20;81.80
9371;DHT22;4725;48.384;8.984;2023-10-08T11:39:55;27.20;81.20
9371;DHT22;4725;48.384;8.984;2023-10-08T11:42:25;27.40;82.20
9371;DHT22;4725;48.384;8.984;2023-10-08T11:45:07;27.10;80.40
9371;DHT22;4725;48.384;8.984;2023-10-08T11:47:50;27.20;81.60
9371;DHT22;4725;48.384;8.984;2023-10-08T11:50:23;27.30;81.90
9371;DHT22;4725;48.384;8.984;2023-10-08T11:52:59;27.10;82.70
9371;DHT22;4725;48.384;8.984;2023-10-08T11:55:31;27.30;80.00
9371;DHT22;4725;48.384;8.984;2023-10-08T11:58:04;27.20;80.00
9371;DHT22;4725;48.384;8.984;2023-10-08T12:00:36;26.80;81.20
9371;DHT22;4725;48.384;8.984;2023-10-08T12:03:09;26.60;81.80
9371;DHT22;4725;48.384;8.984;2023-10-08T12:05:37;26.40;82.70
9371;DHT22;4725;48.384;8.984;2023-10-08T12:08:13;26.40;84.10
9371;DHT22;4725;48.384;8.984;2023-10-08T12:10:42;26.40;82.70
9371;DHT22;4725;48.384;8.984;2023-10-08T12:13:10;26.20;82.90
9371;DHT22;4725;48.384;8.984;2023-10-08T12:15:37;25.90;82.00
9371;DHT22;4725;48.384;8.984;2023-10-08T12:18:06;25.90;81.80
9371;DHT22;4725;48.384;8.984;2023-10-08T12:20:41;25.90;83.60
9371;DHT22;4725;48.384;8.984;2023-10-08T12:23:11;26.30;81.60
9371;DHT22;4725;48.384;8.984;2023-10-08T12:25:45;26.40;81.70
9371;DHT22;4725;48.384;8.984;2023-10-08T12:28:18;26.40;82.80
9371;DHT22;4725;48.384;8.984;2023-10-08T12:30:45;26.80;84.40
9371;DHT22;4725;48.384;8.984;2023-10-08T12:35:42;27.90;80.00
9371;DHT22;4725;48.384;8.984;2023-10-08T12:38:10;28.00;79.60
9371;DHT22;4725;48.384;8.984;2023-10-08T12:40:38;28.30;81.90
9371;DHT22;4725;48.384;8.984;2023-10-08T12:43:19;29.50;77.30
9371;DHT22;4725;48.384;8.984;2023-10-08T12:45:47;30.60;73.80
9371;DHT22;4725;48.384;8.984;2023-10-08T12:48:21;30.50;75.70
9371;DHT22;4725;48.384;8.984;2023-10-08T12:50:50;30.20;76.30
9371;DHT22;4725;48.384;8.984;2023-10-08T12:53:22;30.40;73.70
9371;DHT22;4725;48.384;8.984;2023-10-08T12:55:59;30.10;75.70
9371;DHT22;4725;48.384;8.984;2023-10-08T12:58:33;30.10;76.60
9371;DHT22;4725;48.384;8.984;2023-10-08T13:01:06;29.90;75.30
9371;DHT22;4725;48.384;8.984;2023-10-08T13:03:35;30.00;75.40
9371;DHT22;4725;48.384;8.984;2023-10-08T13:06:07;30.80;74.00
9371;DHT22;4725;48.384;8.984;2023-10-08T13:08:37;30.70;77.00
9371;DHT22;4725;48.384;8.984;2023-10-08T13:11:05;31.20;75.90
9371;DHT22;4725;48.384;8.984;2023-10-08T13:13:33;31.80;71.80
9371;DHT22;4725;48.384;8.984;2023-10-08T13:16:02;31.60;69.90
9371;DHT22;4725;48.384;8.984;2023-10-08T13:18:33;31.40;71.50
9371;DHT22;4725;48.384;8.984;2023-10-08T13:21:03;30.90;74.70
9371;DHT22;4725;48.384;8.984;2023-10-08T13:23:30;30.80;73.80
9371;DHT22;4725;48.384;8.984;2023-10-08T13:25:59;30.50;73.50
9371;DHT22;4725;48.384;8.984;2023-10-08T13:28:30;30.40;73.40
9371;DHT22;4725;48.384;8.984;2023-10-08T13:31:00;30.50;74.60
9371;DHT22;4725;48.384;8.984;2023-10-08T13:33:35;30.50;73.00
9371;DHT22;4725;48.384;8.984;2023-10-08T13:36:04;29.90;73.30
9371;DHT22;4725;48.384;8.984;2023-10-08T13:38:33;29.40;75.30
9371;DHT22;4725;48.384;8.984;2023-10-08T13:41:00;29.50;76.10
9371;DHT22;4725;48.384;8.984;2023-10-08T13:43:32;29.60;76.00
9371;DHT22;4725;48.384;8.984;2023-10-08T13:46:05;29.90;77.30
9371;DHT22;4725;48.384;8.984;2023-10-08T13:48:38;30.10;75.50
9371;DHT22;4725;48.384;8.984;2023-10-08T13:51:06;30.40;75.10
9371;DHT22;4725;48.384;8.984;2023-10-08T13:53:39;30.80;73.00
9371;DHT22;4725;48.384;8.984;2023-10-08T13:56:06;31.00;73.80
9371;DHT22;4725;48.384;8.984;2023-10-08T13:58:37;30.90;74.20
9371;DHT22;4725;48.384;8.984;2023-10-08T14:01:12;31.20;73.20
9371;DHT22;4725;48.384;8.984;2023-10-08T14:03:46;31.30;71.80
9371;DHT22;4725;48.384;8.984;2023-10-08T14:06:14;30.90;71.50
9371;DHT22;4725;48.384;8.984;2023-10-08T14:08:42;31.00;73.40
9371;DHT22;4725;48.384;8.984;2023-10-08T14:13:41;31.90;72.50
9371;DHT22;4725;48.384;8.984;2023-10-08T14:16:08;31.70;72.90
9371;DHT22;4725;48.384;8.984;2023-10-08T14:18:38;31.70;74.40
9371;DHT22;4725;48.384;8.984;2023-10-08T14:21:07;32.10;71.80
9371;DHT22;4725;48.384;8.984;2023-10-08T14:23:36;31.60;72.10
9371;DHT22;4725;48.384;8.984;2023-10-08T14:26:05;31.40;73.70
9371;DHT22;4725;48.384;8.984;2023-10-08T14:28:33;31.50;74.20
9371;DHT22;4725;48.384;8.984;2023-10-08T14:31:08;31.90;70.90
9371;DHT22;4725;48.384;8.984;2023-10-08T14:33:42;32.00;71.70
9371;DHT22;4725;48.384;8.984;2023-10-08T14:36:22;31.50;72.10
9371;DHT22;4725;48.384;8.984;2023-10-08T14:39:07;31.00;72.10
9371;DHT22;4725;48.384;8.984;2023-10-08T14:41:51;30.50;72.60
9371;DHT22;4725;48.384;8.984;2023-10-08T14:44:35;30.80;72.70
9371;DHT22;4725;48.384;8.984;2023-10-08T14:47:02;31.20;71.40
9371;DHT22;4725;48.384;8.984;2023-10-08T14:49:31;31.30;73.00
9371;DHT22;4725;48.384;8.984;2023-10-08T14:51:59;31.20;73.60
9371;DHT22;4725;48.384;8.984;2023-10-08T14:54:26;31.60;71.70
9371;DHT22;4725;48.384;8.984;2023-10-08T14:56:53;31.60;70.70
9371;DHT22;4725;48.384;8.984;2023-10-08T14:59:23;31.60;72.10
9371;DHT22;4725;48.384;8.984;2023-10-08T15:01:53;30.80;72.70
9371;DHT22;4725;48.384;8.984;2023-10-08T15:04:20;30.60;73.10
9371;DHT22;4725;48.384;8.984;2023-10-08T15:06:49;30.20;73.50
9371;DHT22;4725;48.384;8.984;2023-10-08T15:09:16;29.80;74.70
9371;DHT22;4725;48.384;8.984;2023-10-08T15:11:47;29.20;76.40
9371;DHT22;4725;48.384;8.984;2023-10-08T15:14:13;29.40;76.70
9371;DHT22;4725;48.384;8.984;2023-10-08T15:16:41;29.80;75.20
9371;DHT22;4725;48.384;8.984;2023-10-08T15:19:09;30.00;75.70
9371;DHT22;4725;48.384;8.984;2023-10-08T15:21:37;29.50;75.10
9371;DHT22;4725;48.384;8.984;2023-10-08T15:24:06;28.60;77.30
9371;DHT22;4725;48.384;8.984;2023-10-08T15:26:37;27.80;78.90
9371;DHT22;4725;48.384;8.984;2023-10-08T15:29:04;27.50;79.90
9371;DHT22;4725;48.384;8.984;2023-10-08T15:31:31;27.30;79.40
9371;DHT22;4725;48.384;8.984;2023-10-08T15:33:58;26.80;79.70
9371;DHT22;4725;48.384;8.984;2023-10-08T15:36:25;26.20;82.00
9371;DHT22;4725;48.384;8.984;2023-10-08T15:38:52;26.20;81.90
9371;DHT22;4725;48.384;8.984;2023-10-08T15:41:21;25.80;81.50
9371;DHT22;4725;48.384;8.984;2023-10-08T15:43:50;25.70;82.70
9371;DHT22;4725;48.384;8.984;2023-10-08T15:46:19;25.40;83.00
9371;DHT22;4725;48.384;8.984;2023-10-08T15:48:46;25.40;83.60
9371;DHT22;4725;48.384;8.984;2023-10-08T15:51:13;25.20;84.00
9371;DHT22;4725;48.384;8.984;2023-10-08T15:53:40;25.10;84.60
9371;DHT22;4725;48.384;8.984;2023-10-08T15:56:07;24.80;85.60
9371;DHT22;4725;48.384;8.984;2023-10-08T15:58:35;24.70;86.20
9371;DHT22;4725;48.384;8.984;2023-10-08T16:01:02;24.40;88.40
9371;DHT22;4725;48.384;8.984;2023-10-08T16:03:29;24.20;89.40
9371;DHT22;4725;48.384;8.984;2023-10-08T16:05:56;23.80;89.60
9371;DHT22;4725;48.384;8.984;2023-10-08T16:08:22;23.80;90.00
9371;DHT22;4725;48.384;8.984;2023-10-08T16:10:49;23.70;90.00
9371;DHT22;4725;48.384;8.984;2023-10-08T16:13:16;23.50;90.30
9371;DHT22;4725;48.384;8.984;2023-10-08T16:15:44;23.20;90.00
9371;DHT22;4725;48.384;8.984;2023-10-08T16:18:11;23.20;90.50
9371;DHT22;4725;48.384;8.984;2023-10-08T16:20:38;23.00;90.50
9371;DHT22;4725;48.384;8.984;2023-10-08T16:23:05;22.80;91.10
9371;DHT22;4725;48.384;8.984;2023-10-08T16:25:33;22.30;91.90
9371;DHT22;4725;48.384;8.984;2023-10-08T16:28:01;22.30;92.20
9371;DHT22;4725;48.384;8.984;2023-10-08T16:30:29;22.00;92.40
9371;DHT22;4725;48.384;8.984;2023-10-08T16:33:00;21.70;93.10
9371;DHT22;4725;48.384;8.984;2023-10-08T16:38:00;21.30;93.00
9371;DHT22;4725;48.384;8.984;2023-10-08T16:40:31;21.00;92.90
9371;DHT22;4725;48.384;8.984;2023-10-08T16:42:59;21.00;92.90
9371;DHT22;4725;48.384;8.984;2023-10-08T16:45:25;20.90;92.90
9371;DHT22;4725;48.384;8.984;2023-10-08T16:47:55;20.80;93.20
9371;DHT22;4725;48.384;8.984;2023-10-08T16:50:25;20.70;93.50
9371;DHT22;4725;48.384;8.984;2023-10-08T16:52:52;20.40;94.10
9371;DHT22;4725;48.384;8.984;2023-10-08T16:55:21;20.10;94.60
9371;DHT22;4725;48.384;8.984;2023-10-08T16:57:50;19.70;94.70
9371;DHT22;4725;48.384;8.984;2023-10-08T17:00:18;19.50;95.20
9371;DHT22;4725;48.384;8.984;2023-10-08T17:02:46;19.40;95.50
9371;DHT22;4725;48.384;8.984;2023-10-08T17:05:13;19.40;95.70
9371;DHT22;4725;48.384;8.984;2023-10-08T17:07:42;19.20;95.00
9371;DHT22;4725;48.384;8.984;2023-10-08T17:10:10;18.80;96.10
9371;DHT22;4725;48.384;8.984;2023-10-08T17:12:38;18.20;98.10
9371;DHT22;4725;48.384;8.984;2023-10-08T17:15:06;17.70;99.40
9371;DHT22;4725;48.384;8.984;2023-10-08T17:17:35;18.60;99.90